Time;durP1;ratioP1;P1;durP2;ratioP2;P2;SDS_P1;SDS_P2;PMS_P1;PMS_P2;Temp;Humidity;BMP_temperature;BMP_pressure;BME280_temperature;BME280_humidity;BME280_pressure;Samples;Min_cycle;Max_cycle;Signal;HPM_P1;HPM_P2
2022/01/05 00:01:16;;;;;;;18.15;10.28;;;;;;;3.97;86.71;99635.08;1736722;81;21350;-54
2022/01/05 00:04:28;;;;;;;18.82;10.10;;;;;;;3.92;86.80;99628.40;1740052;81;21262;-55
2022/01/05 00:07:34;;;;;;;18.23;11.55;;;;;;;3.88;86.94;99637.35;1746516;81;21409;-55
2022/01/05 00:10:41;;;;;;;16.02;10.38;;;;;;;3.88;87.18;99625.66;1735993;81;21840;-55
2022/01/05 00:13:48;;;;;;;18.27;11.18;;;;;;;3.90;87.39;99613.66;1724829;82;21211;-56
2022/01/05 00:16:54;;;;;;;16.70;10.38;;;;;;;3.92;87.41;99614.37;1770726;81;21416;-55
2022/01/05 00:20:01;;;;;;;17.10;11.12;;;;;;;3.93;87.45;99603.88;1772535;80;21337;-55
2022/01/05 00:23:08;;;;;;;17.57;10.85;;;;;;;3.94;87.52;99592.56;1772557;80;21747;-55
2022/01/05 00:26:16;;;;;;;17.85;10.68;;;;;;;3.97;87.52;99594.95;1772639;80;21400;-54
2022/01/05 00:29:22;;;;;;;19.70;13.03;;;;;;;3.94;87.45;99589.84;1772652;80;21377;-56
2022/01/05 00:32:27;;;;;;;22.85;13.65;;;;;;;3.93;87.43;99584.92;1772650;80;21400;-55
2022/01/05 00:35:32;;;;;;;21.57;14.20;;;;;;;3.92;87.54;99581.88;1772466;80;21432;-54
2022/01/05 00:38:38;;;;;;;24.15;15.13;;;;;;;3.93;87.63;99584.10;1772423;80;21329;-54
2022/01/05 00:41:45;;;;;;;27.40;16.87;;;;;;;3.96;87.75;99583.79;1772405;80;21345;-55
2022/01/05 00:44:51;;;;;;;25.20;16.42;;;;;;;3.97;87.75;99579.58;1772548;80;21349;-55
2022/01/05 00:47:57;;;;;;;26.75;16.80;;;;;;;4.00;87.79;99571.14;1772924;80;21668;-55
2022/01/05 00:51:03;;;;;;;25.00;16.05;;;;;;;4.04;87.83;99569.81;1772630;80;21881;-54
2022/01/05 00:54:09;;;;;;;26.10;16.77;;;;;;;4.08;87.82;99569.00;1772785;80;21356;-54
2022/01/05 00:57:18;;;;;;;32.38;18.17;;;;;;;4.13;87.77;99564.84;1772494;80;21384;-56
2022/01/05 01:00:25;;;;;;;36.05;20.02;;;;;;;4.13;87.69;99571.61;1772819;80;21854;-54
2022/01/05 01:03:32;;;;;;;31.40;19.57;;;;;;;4.20;87.79;99555.59;1772524;80;21332;-54
2022/01/05 01:06:38;;;;;;;29.52;18.05;;;;;;;4.29;87.81;99551.45;1772575;80;21364;-53
2022/01/05 01:09:44;;;;;;;34.58;18.00;;;;;;;4.33;87.66;99547.41;1772745;80;21266;-54
2022/01/05 01:12:53;;;;;;;26.05;17.30;;;;;;;4.39;87.60;99535.10;1772014;80;21215;-55
2022/01/05 01:15:58;;;;;;;25.85;16.35;;;;;;;4.49;87.57;99543.96;1718894;83;21238;-55
2022/01/05 01:19:05;;;;;;;29.10;16.62;;;;;;;4.54;87.26;99530.80;1719736;83;22048;-55
2022/01/05 01:22:14;;;;;;;27.80;16.07;;;;;;;4.53;87.01;99529.94;1719547;83;21224;-54
2022/01/05 01:25:19;;;;;;;24.57;15.53;;;;;;;4.51;86.90;99527.05;1719316;83;21259;-54
2022/01/05 01:28:29;;;;;;;26.12;15.20;;;;;;;4.46;86.74;99520.76;1719258;83;21191;-55
2022/01/05 01:31:37;;;;;;;24.45;14.68;;;;;;;4.43;86.66;99525.14;1719687;83;21863;-54
2022/01/05 01:34:46;;;;;;;24.77;15.65;;;;;;;4.42;86.93;99521.23;1719597;83;21230;-55
2022/01/05 01:37:52;;;;;;;24.43;15.25;;;;;;;4.47;87.18;99508.90;1719560;82;21222;-53
2022/01/05 01:40:59;;;;;;;24.20;15.53;;;;;;;4.50;87.25;99490.97;1719132;83;21752;-53
2022/01/05 01:44:09;;;;;;;27.22;16.45;;;;;;;4.52;87.31;99497.09;1719613;83;21235;-53
2022/01/05 01:47:14;;;;;;;29.75;17.32;;;;;;;4.50;87.21;99481.48;1719529;83;21246;-54
2022/01/05 01:50:20;;;;;;;26.10;16.05;;;;;;;4.47;87.15;99491.81;1719520;83;21286;-54
2022/01/05 01:53:26;;;;;;;25.85;16.20;;;;;;;4.41;87.18;99482.45;1719535;83;21312;-53
2022/01/05 01:56:33;;;;;;;31.65;17.73;;;;;;;4.35;87.34;99474.96;1719513;83;21242;-54
2022/01/05 01:59:38;;;;;;;31.23;17.92;;;;;;;4.33;87.49;99465.27;1719689;83;21227;-52
2022/01/05 02:02:44;;;;;;;29.75;17.32;;;;;;;4.30;87.65;99463.75;1703696;83;21251;-54
2022/01/05 02:05:51;;;;;;;30.48;19.00;;;;;;;4.27;87.76;99455.94;1719536;83;21220;-54
2022/01/05 02:08:56;;;;;;;33.15;19.23;;;;;;;4.23;87.82;99449.65;1719543;83;21223;-54
2022/01/05 02:12:03;;;;;;;30.02;18.60;;;;;;;4.20;87.99;99445.38;1719542;83;21231;-53
2022/01/05 02:15:11;;;;;;;33.65;19.57;;;;;;;4.17;88.07;99438.93;1719756;82;21258;-53
2022/01/05 02:21:42;;;;;;;30.08;18.98;;;;;;;4.15;88.32;99419.30;1719608;83;21566;-55
2022/01/05 02:24:50;;;;;;;30.68;18.27;;;;;;;4.12;88.44;99414.17;1719745;83;21278;-54
2022/01/05 02:27:58;;;;;;;29.40;17.98;;;;;;;4.09;88.59;99396.90;1719559;83;21212;-55
2022/01/05 02:31:04;;;;;;;31.30;19.12;;;;;;;4.09;88.73;99395.55;1719623;83;21230;-54
2022/01/05 02:34:12;;;;;;;27.20;17.07;;;;;;;4.11;88.92;99392.18;1719568;83;21200;-53
2022/01/05 02:37:18;;;;;;;31.70;18.40;;;;;;;4.12;89.01;99385.74;1719606;83;21247;-53
2022/01/05 02:40:25;;;;;;;29.55;18.17;;;;;;;4.13;89.12;99371.22;1719554;83;21247;-54
2022/01/05 02:43:30;;;;;;;32.42;18.60;;;;;;;4.14;89.16;99359.37;1719564;83;21306;-54
2022/01/05 02:46:35;;;;;;;30.62;17.77;;;;;;;4.14;89.24;99354.44;1719297;82;21274;-54
2022/01/05 02:49:42;;;;;;;29.77;18.37;;;;;;;4.13;89.35;99352.27;1719788;83;21256;-54
2022/01/05 02:52:51;;;;;;;28.52;15.95;;;;;;;4.14;89.50;99343.61;1719543;83;21227;-54
2022/01/05 02:55:56;;;;;;;27.27;16.23;;;;;;;4.12;89.53;99329.41;1702160;83;21238;-53
2022/01/05 02:59:02;;;;;;;22.62;14.55;;;;;;;4.11;89.62;99354.77;1719638;83;21228;-54
2022/01/05 03:02:08;;;;;;;24.85;14.55;;;;;;;4.15;89.89;99367.85;1719493;83;21246;-52
2022/01/05 03:05:15;;;;;;;19.82;13.20;;;;;;;4.23;90.15;99350.27;1719312;82;21248;-53
2022/01/05 03:08:22;;;;;;;19.95;12.82;;;;;;;4.28;90.08;99353.87;1719848;83;21191;-54
2022/01/05 03:11:29;;;;;;;19.60;12.50;;;;;;;4.32;90.11;99351.17;1719510;83;21241;-54
2022/01/05 03:14:36;;;;;;;17.70;11.30;;;;;;;4.33;90.09;99334.75;1719594;83;21211;-54
2022/01/05 03:17:46;;;;;;;18.12;11.05;;;;;;;4.33;90.04;99334.75;1770578;80;21226;-54
2022/01/05 03:20:51;;;;;;;17.80;9.80;;;;;;;4.35;90.13;99323.75;1772840;80;21219;-54
2022/01/05 03:23:57;;;;;;;16.35;10.40;;;;;;;4.38;90.18;99316.66;1743390;82;21342;-54
2022/01/05 03:27:03;;;;;;;17.12;9.75;;;;;;;4.32;90.01;99310.54;1773212;80;21791;-55
2022/01/05 03:30:08;;;;;;;15.25;9.40;;;;;;;4.23;90.05;99297.45;1743277;82;21243;-54
2022/01/05 03:33:21;;;;;;;13.48;8.70;;;;;;;4.23;90.25;99297.98;1773010;80;21719;-54
2022/01/05 03:36:21;;;;;;;13.32;8.65;;;;;;;4.23;90.48;99294.75;1735712;82;21891;-55
2022/01/05 03:39:29;;;;;;;13.65;8.33;;;;;;;4.22;90.45;99297.13;1773554;80;21206;-53
2022/01/05 03:42:36;;;;;;;14.87;8.23;;;;;;;4.20;90.57;99291.02;1735910;82;21450;-54
2022/01/05 03:45:42;;;;;;;17.42;8.33;;;;;;;4.19;90.69;99283.91;1773620;80;21187;-54
2022/01/05 03:48:49;;;;;;;12.65;8.35;;;;;;;4.21;90.79;99282.39;1718565;82;21343;-54
2022/01/05 03:51:55;;;;;;;14.65;8.78;;;;;;;4.20;90.73;99273.41;1772848;80;21262;-54
2022/01/05 03:55:01;;;;;;;14.53;8.05;;;;;;;4.19;90.80;99259.53;1743355;82;21318;-54
2022/01/05 03:58:09;;;;;;;15.78;9.25;;;;;;;4.14;90.69;99244.28;1773432;80;21229;-54
2022/01/05 04:01:19;;;;;;;16.37;8.43;;;;;;;4.08;90.79;99249.00;1743150;82;21342;-53
2022/01/05 04:04:25;;;;;;;14.63;8.10;;;;;;;4.09;91.02;99252.03;1773325;80;21455;-55
2022/01/05 04:07:31;;;;;;;12.70;7.62;;;;;;;4.11;91.14;99248.67;1743183;82;21327;-55
2022/01/05 04:10:37;;;;;;;15.58;8.73;;;;;;;4.15;91.26;99233.81;1772659;80;21204;-55
2022/01/05 04:13:45;;;;;;;14.47;8.63;;;;;;;4.15;91.22;99246.48;1743279;82;21204;-54
2022/01/05 04:16:51;;;;;;;12.07;8.83;;;;;;;4.14;91.25;99242.06;1771110;80;21729;-53
2022/01/05 04:19:57;;;;;;;14.53;7.80;;;;;;;4.17;91.42;99234.47;1770548;81;21243;-53
2022/01/05 04:23:02;;;;;;;15.48;9.05;;;;;;;4.21;91.46;99216.90;1716642;82;21243;-53
2022/01/05 04:26:08;;;;;;;16.10;9.13;;;;;;;4.22;91.39;99209.11;1721744;83;21385;-54
2022/01/05 04:29:13;;;;;;;13.22;7.78;;;;;;;4.25;91.44;99209.30;1721853;83;21875;-55
2022/01/05 04:32:18;;;;;;;14.50;8.88;;;;;;;4.27;91.43;99199.98;1721648;83;21255;-52
2022/01/05 04:35:24;;;;;;;17.85;9.60;;;;;;;4.32;91.46;99197.63;1719544;83;21251;-52
2022/01/05 04:38:30;;;;;;;15.68;8.88;;;;;;;4.33;91.45;99195.25;1720174;83;21349;-53
2022/01/05 04:41:35;;;;;;;17.00;10.45;;;;;;;4.32;91.33;99182.73;1720091;83;21346;-52
2022/01/05 04:44:43;;;;;;;15.00;9.68;;;;;;;4.32;91.43;99183.23;1720108;83;21405;-53
2022/01/05 04:47:51;;;;;;;13.20;9.05;;;;;;;4.33;91.55;99173.58;1720092;83;21330;-52
2022/01/05 04:50:58;;;;;;;17.02;9.23;;;;;;;4.37;91.70;99165.48;1720053;83;21413;-53
2022/01/05 04:54:05;;;;;;;13.60;9.15;;;;;;;4.42;91.77;99158.20;1762157;81;21210;-55
2022/01/05 04:57:11;;;;;;;15.45;10.45;;;;;;;4.43;91.80;99163.95;1770856;81;21317;-54
2022/01/05 05:00:21;;;;;;;13.68;9.00;;;;;;;4.47;91.97;99159.91;1770737;81;21763;-54
2022/01/05 05:03:25;;;;;;;14.50;9.10;;;;;;;4.51;92.11;99172.95;1770699;81;21294;-55
2022/01/05 05:06:34;;;;;;;14.65;8.43;;;;;;;4.59;92.28;99175.67;1735718;82;21461;-54
2022/01/05 05:09:39;;;;;;;14.73;8.78;;;;;;;4.70;92.37;99174.98;1721702;83;21720;-53
2022/01/05 05:12:45;;;;;;;13.95;8.20;;;;;;;4.78;92.45;99174.50;1721790;83;21200;-51
2022/01/05 05:15:51;;;;;;;14.13;8.33;;;;;;;4.83;92.22;99175.34;1721880;83;21882;-53
2022/01/05 05:18:59;;;;;;;16.23;9.55;;;;;;;4.84;92.10;99177.02;1713410;82;21273;-53
2022/01/05 05:22:09;;;;;;;17.80;8.65;;;;;;;4.86;91.99;99172.29;1698691;82;21222;-52
2022/01/05 05:25:17;;;;;;;15.40;9.38;;;;;;;4.86;91.85;99170.44;1709814;83;21210;-53
2022/01/05 05:28:20;;;;;;;16.37;9.83;;;;;;;4.91;91.92;99182.98;1704340;83;21239;-54
2022/01/05 05:31:25;;;;;;;16.37;9.23;;;;;;;4.96;91.92;99182.47;1724558;83;21289;-55
2022/01/05 05:34:30;;;;;;;14.80;9.55;;;;;;;5.02;91.87;99197.55;1704214;84;21196;-55
2022/01/05 05:37:39;;;;;;;16.67;9.63;;;;;;;5.07;91.82;99201.11;1724965;83;21210;-53
2022/01/05 05:40:45;;;;;;;14.43;10.25;;;;;;;5.13;91.77;99211.27;1689123;83;21228;-53
2022/01/05 05:43:52;;;;;;;13.83;10.10;;;;;;;5.19;91.71;99209.23;1724674;83;21517;-54
2022/01/05 05:47:02;;;;;;;18.95;11.05;;;;;;;5.22;91.53;99196.17;1715215;82;21479;-53
2022/01/05 05:50:09;;;;;;;24.80;14.03;;;;;;;5.24;91.40;99210.92;1704528;83;21354;-52
2022/01/05 05:53:15;;;;;;;17.23;12.68;;;;;;;5.26;91.38;99212.96;1725032;83;21792;-52
2022/01/05 05:56:20;;;;;;;16.30;12.60;;;;;;;5.30;91.34;99219.73;1704500;84;21326;-53
2022/01/05 05:59:25;;;;;;;18.60;12.05;;;;;;;5.34;91.28;99224.67;1725062;83;21189;-54
2022/01/05 06:02:31;;;;;;;20.75;12.03;;;;;;;5.36;91.20;99220.42;1704429;84;21643;-54
2022/01/05 06:05:37;;;;;;;20.97;13.30;;;;;;;5.38;91.09;99219.72;1724476;83;21284;-53
2022/01/05 06:08:42;;;;;;;18.37;12.80;;;;;;;5.40;91.04;99219.05;1713588;83;21251;-54
2022/01/05 06:11:47;;;;;;;24.43;15.00;;;;;;;5.41;90.87;99214.80;1708994;82;21375;-54
2022/01/05 06:14:53;;;;;;;24.12;15.13;;;;;;;5.44;90.77;99204.96;1702676;82;21758;-52
2022/01/05 06:17:59;;;;;;;24.52;15.48;;;;;;;5.48;90.65;99209.54;1674713;83;21387;-54
2022/01/05 06:21:06;;;;;;;22.55;13.95;;;;;;;5.50;90.49;99207.52;1717028;80;21210;-55
2022/01/05 06:24:11;;;;;;;22.65;14.85;;;;;;;5.52;90.39;99198.16;1769679;80;21189;-54
2022/01/05 06:27:16;;;;;;;20.90;14.38;;;;;;;5.54;90.29;99184.42;1746411;80;21594;-54
2022/01/05 06:30:24;;;;;;;21.45;14.33;;;;;;;5.58;90.28;99179.00;1725500;81;21224;-54
2022/01/05 06:33:29;;;;;;;21.75;14.75;;;;;;;5.61;90.14;99185.44;1748904;81;21315;-53
2022/01/05 06:36:34;;;;;;;19.02;13.40;;;;;;;5.63;90.06;99175.22;1765786;79;21240;-53
2022/01/05 06:39:39;;;;;;;24.60;14.28;;;;;;;5.66;89.99;99177.09;1768944;80;21181;-54
2022/01/05 06:42:48;;;;;;;19.82;13.90;;;;;;;5.71;89.96;99178.77;1768531;80;21711;-55
2022/01/05 06:45:54;;;;;;;20.75;13.32;;;;;;;5.74;89.82;99176.23;1768350;79;21498;-53
2022/01/05 06:49:01;;;;;;;22.27;14.28;;;;;;;5.80;89.66;99180.97;1769164;80;21208;-55
2022/01/05 06:52:06;;;;;;;21.30;14.35;;;;;;;5.82;89.46;99176.22;1769729;79;21216;-54
2022/01/05 06:55:12;;;;;;;24.77;13.35;;;;;;;5.83;89.25;99172.00;1769931;80;21256;-54
2022/01/05 06:58:20;;;;;;;21.17;13.10;;;;;;;5.84;89.18;99166.03;1769060;80;21335;-54
2022/01/05 07:01:27;;;;;;;24.95;12.05;;;;;;;5.86;89.08;99176.22;1768642;80;21777;-53
2022/01/05 07:04:33;;;;;;;20.77;12.58;;;;;;;5.92;89.16;99179.58;1769957;80;21173;-53
2022/01/05 07:07:38;;;;;;;20.02;12.00;;;;;;;5.95;89.03;99181.44;1766539;79;21183;-53
2022/01/05 07:10:45;;;;;;;23.12;12.98;;;;;;;5.99;88.99;99179.23;1751004;81;21189;-55
2022/01/05 07:13:50;;;;;;;20.80;12.50;;;;;;;6.01;88.84;99169.02;1756504;80;21718;-53
2022/01/05 07:16:58;;;;;;;19.55;11.83;;;;;;;6.05;88.82;99182.09;1750851;80;21326;-54
2022/01/05 07:20:04;;;;;;;22.82;12.47;;;;;;;6.09;88.75;99182.56;1726948;79;21200;-54
2022/01/05 07:23:12;;;;;;;23.02;11.18;;;;;;;6.11;88.66;99196.81;1702349;81;21244;-54
2022/01/05 07:26:21;;;;;;;20.72;12.50;;;;;;;6.12;88.54;99173.22;1709814;82;21235;-54
2022/01/05 07:29:26;;;;;;;19.27;12.00;;;;;;;6.11;88.41;99168.30;1690181;85;21196;-55
2022/01/05 07:32:32;;;;;;;26.65;11.60;;;;;;;6.13;88.36;99168.97;1692943;82;21248;-54
2022/01/05 07:35:36;;;;;;;22.80;11.05;;;;;;;6.12;88.34;99175.41;1722153;82;21172;-54
2022/01/05 07:38:43;;;;;;;18.00;11.15;;;;;;;6.14;88.47;99170.66;1725025;82;21203;-55
2022/01/05 07:41:51;;;;;;;23.67;12.07;;;;;;;6.17;88.45;99160.78;1721055;81;21682;-55
2022/01/05 07:45:00;;;;;;;26.33;13.60;;;;;;;6.23;88.50;99176.41;1734711;82;21200;-55
2022/01/05 07:48:00;;;;;;;20.52;11.97;;;;;;;6.29;88.41;99181.12;1722142;82;21200;-54
2022/01/05 07:51:06;;;;;;;18.62;11.78;;;;;;;6.34;88.26;99173.28;1714875;82;21196;-52
2022/01/05 07:54:11;;;;;;;24.50;11.43;;;;;;;6.35;88.12;99180.90;1723630;81;21251;-54
2022/01/05 07:57:16;;;;;;;19.73;10.75;;;;;;;6.38;88.13;99181.90;1709020;81;21200;-54
2022/01/05 08:00:22;;;;;;;22.15;11.38;;;;;;;6.43;88.09;99184.94;1711158;81;21296;-54
2022/01/05 08:03:30;;;;;;;20.70;10.58;;;;;;;6.48;88.00;99187.97;1704766;84;21215;-54
2022/01/05 08:06:37;;;;;;;19.07;9.60;;;;;;;6.51;87.93;99180.31;1724375;82;21181;-53
2022/01/05 08:09:42;;;;;;;17.27;9.60;;;;;;;6.54;87.95;99172.30;1729213;82;21179;-53
2022/01/05 08:12:49;;;;;;;20.57;9.50;;;;;;;6.59;87.80;99154.43;1733921;82;21156;-53
2022/01/05 08:15:59;;;;;;;18.32;9.43;;;;;;;6.61;87.66;99163.23;1734217;82;21418;-55
2022/01/05 08:19:06;;;;;;;20.15;10.63;;;;;;;6.61;87.53;99156.43;1713951;82;21852;-54
2022/01/05 08:22:11;;;;;;;17.37;9.55;;;;;;;6.61;87.41;99151.00;1725928;78;21212;-54
2022/01/05 08:25:24;;;;;;;17.05;9.53;;;;;;;6.61;87.36;99163.77;1769677;80;21247;-54
2022/01/05 08:28:29;;;;;;;;;;;;;;;6.63;87.40;99159.83;1790374;80;21989;-54
2022/01/05 08:31:37;;;;;;;15.65;8.55;;;;;;;6.64;87.37;99149.30;1784427;80;20213;-53
2022/01/05 08:34:43;;;;;;;17.40;9.20;;;;;;;6.68;87.46;99147.04;1755901;80;21345;-52
2022/01/05 08:37:50;;;;;;;16.23;8.78;;;;;;;6.75;87.45;99139.36;1770120;80;21566;-53
2022/01/05 08:40:56;;;;;;;17.30;8.25;;;;;;;6.78;87.33;99132.19;1748278;81;21585;-53
2022/01/05 08:44:01;;;;;;;16.82;8.15;;;;;;;6.87;87.33;99137.89;1760580;81;21310;-53
2022/01/05 08:47:10;;;;;;;17.50;8.40;;;;;;;6.93;87.24;99128.99;1764251;81;21213;-52
2022/01/05 08:50:19;;;;;;;15.68;9.13;;;;;;;7.02;87.07;99140.66;1769478;79;21185;-54
2022/01/05 08:53:28;;;;;;;16.93;8.63;;;;;;;7.06;86.79;99128.36;1758064;81;21224;-54
2022/01/05 08:56:34;;;;;;;16.73;8.90;;;;;;;7.10;86.62;99131.89;1768694;80;21863;-53
2022/01/05 08:59:43;;;;;;;17.30;8.73;;;;;;;7.13;86.45;99122.02;1769615;80;21726;-52
2022/01/05 09:02:49;;;;;;;20.55;9.65;;;;;;;7.20;86.40;99133.84;1763242;81;21209;-53
2022/01/05 09:05:55;;;;;;;16.77;8.25;;;;;;;7.28;86.30;99133.77;1769471;79;21193;-52
2022/01/05 09:09:02;;;;;;;17.62;8.48;;;;;;;7.37;86.04;99142.70;1768414;80;21200;-54
2022/01/05 09:12:11;;;;;;;14.43;7.58;;;;;;;7.45;85.79;99154.33;1756805;80;21184;-54
2022/01/05 09:15:18;;;;;;;15.13;7.75;;;;;;;7.52;85.62;99153.94;1763675;81;21182;-51
2022/01/05 09:18:30;;;;;;;16.62;8.10;;;;;;;7.58;85.50;99150.45;1767556;80;21212;-52
2022/01/05 09:21:42;;;;;;;17.40;8.23;;;;;;;7.63;85.27;99143.94;1729852;81;21775;-54
2022/01/05 09:24:49;;;;;;;22.25;9.90;;;;;;;7.63;85.05;99153.16;1761008;80;21192;-53
2022/01/05 09:27:59;;;;;;;19.98;8.83;;;;;;;7.59;84.87;99154.03;1755898;81;21166;-53
2022/01/05 09:31:07;;;;;;;17.20;8.68;;;;;;;7.57;84.97;99143.33;1757558;79;21706;-55
2022/01/05 09:34:14;;;;;;;20.75;9.33;;;;;;;7.58;84.81;99140.07;1765746;81;21181;-53
2022/01/05 09:37:29;;;;;;;16.35;8.40;;;;;;;7.56;84.84;99130.73;1758785;81;21196;-53
2022/01/05 09:44:01;;;;;;;16.27;8.25;;;;;;;7.66;85.01;99128.27;1764708;80;21181;-51
2022/01/05 09:47:58;;;;;;;20.68;9.25;;;;;;;7.71;84.86;99120.38;1758725;81;21228;-53
2022/01/05 09:51:14;;;;;;;19.40;8.60;;;;;;;7.72;84.60;99128.88;1739691;81;21259;-52
2022/01/05 09:54:23;;;;;;;16.95;9.08;;;;;;;7.74;84.61;99126.81;1753645;81;21193;-53
2022/01/05 09:57:31;;;;;;;20.60;8.55;;;;;;;7.76;84.56;99117.91;1762068;80;21188;-53
2022/01/05 10:00:38;;;;;;;17.07;8.18;;;;;;;7.81;84.40;99120.91;1756418;79;21196;-53
2022/01/05 10:03:44;;;;;;;18.70;8.50;;;;;;;7.81;84.31;99112.74;1760455;81;21480;-53
2022/01/05 10:06:50;;;;;;;15.55;8.13;;;;;;;7.84;84.25;99113.22;1764676;81;21996;-54
2022/01/05 10:09:56;;;;;;;17.02;8.10;;;;;;;7.91;84.19;99114.67;1768366;80;21150;-52
2022/01/05 10:13:04;;;;;;;16.12;7.75;;;;;;;7.95;84.06;99114.60;1767808;81;21252;-52
2022/01/05 10:16:10;;;;;;;17.23;8.63;;;;;;;7.99;83.87;99114.56;1767409;79;21200;-54
2022/01/05 10:19:17;;;;;;;19.62;9.95;;;;;;;8.03;83.73;99111.27;1764956;81;21513;-52
2022/01/05 10:22:40;;;;;;;23.83;14.87;;;;;;;8.10;83.61;99118.16;1737744;80;21734;-53
2022/01/05 10:25:46;;;;;;;16.75;8.83;;;;;;;8.18;83.49;99105.79;1737237;81;21204;-53
2022/01/05 10:28:54;;;;;;;16.12;8.25;;;;;;;8.29;83.31;99110.23;1740933;81;21686;-52
2022/01/05 10:32:05;;;;;;;16.55;8.33;;;;;;;8.45;83.18;99104.55;1737570;81;21231;-54
2022/01/05 10:35:27;;;;;;;16.67;7.45;;;;;;;8.58;82.93;99104.69;1737956;81;21209;-54
2022/01/05 10:38:36;;;;;;;18.12;7.78;;;;;;;8.67;82.51;99108.15;1738253;82;21271;-54
2022/01/05 10:41:46;;;;;;;16.90;8.20;;;;;;;8.71;82.20;99102.61;1749002;81;21812;-53
2022/01/05 10:44:53;;;;;;;16.05;8.63;;;;;;;8.72;81.77;99092.05;1769570;80;21173;-54
2022/01/05 10:48:13;;;;;;;15.88;8.43;;;;;;;8.80;81.61;99097.37;1743816;80;21762;-54
2022/01/05 10:51:21;;;;;;;16.05;9.23;;;;;;;8.90;81.50;99092.41;1761602;80;21216;-53
2022/01/05 10:54:30;;;;;;;22.15;9.90;;;;;;;9.03;81.19;99100.71;1737911;82;21170;-54
2022/01/05 10:57:36;;;;;;;19.05;10.15;;;;;;;9.10;80.96;99100.25;1767806;80;21550;-53
2022/01/05 11:01:00;;;;;;;17.82;10.82;;;;;;;9.16;80.75;99111.74;1767887;80;21287;-54
2022/01/05 11:04:09;;;;;;;17.55;9.73;;;;;;;9.16;80.57;99109.02;1769848;80;21720;-54
2022/01/05 11:07:16;;;;;;;19.25;9.63;;;;;;;9.16;80.47;99104.92;1738861;81;21181;-54
2022/01/05 11:10:25;;;;;;;14.87;8.40;;;;;;;9.16;80.50;99119.94;1751444;79;21710;-55
2022/01/05 11:13:33;;;;;;;16.00;7.75;;;;;;;9.17;80.57;99128.44;1766539;80;21189;-54
2022/01/05 11:16:40;;;;;;;13.70;6.92;;;;;;;9.16;80.61;99132.22;1758191;80;21204;-55
2022/01/05 11:19:46;;;;;;;9.65;6.28;;;;;;;9.16;80.63;99135.45;1764908;80;21208;-54
2022/01/05 11:22:55;;;;;;;13.30;7.08;;;;;;;9.11;80.57;99130.59;1766637;80;21221;-54
2022/01/05 11:26:06;;;;;;;12.33;6.80;;;;;;;9.12;80.48;99141.83;1763582;80;21223;-53
2022/01/05 11:29:11;;;;;;;13.28;6.95;;;;;;;9.14;80.44;99156.13;1754018;81;21231;-53
2022/01/05 11:32:20;;;;;;;14.20;7.08;;;;;;;9.14;80.35;99164.33;1751526;79;21228;-54
2022/01/05 11:35:26;;;;;;;12.13;6.72;;;;;;;9.14;80.24;99157.50;1764882;79;21534;-54
2022/01/05 11:38:32;;;;;;;16.25;6.97;;;;;;;9.15;80.24;99153.71;1768081;80;21838;-55
2022/01/05 11:41:37;;;;;;;14.38;7.03;;;;;;;9.22;80.13;99153.77;1769040;79;21236;-54
2022/01/05 11:44:57;;;;;;;11.50;6.97;;;;;;;9.23;79.95;99146.75;1770117;80;22012;-55
2022/01/05 11:48:40;;;;;;;12.50;7.00;;;;;;;9.25;79.89;99161.06;1765024;81;21174;-54
2022/01/05 11:51:55;;;;;;;13.10;7.65;;;;;;;9.22;79.72;99164.19;1750714;79;21217;-54
2022/01/05 11:55:13;;;;;;;15.70;7.72;;;;;;;9.18;79.66;99169.70;1759861;81;21204;-54
2022/01/05 11:58:27;;;;;;;16.82;8.55;;;;;;;9.15;79.64;99159.17;1744867;80;21224;-53
2022/01/05 12:01:43;;;;;;;17.27;9.63;;;;;;;9.14;79.67;99160.23;1731914;80;21559;-54
2022/01/05 12:05:05;;;;;;;17.82;9.25;;;;;;;9.14;79.67;99158.86;1765691;81;21173;-55
2022/01/05 12:08:10;;;;;;;20.23;9.70;;;;;;;9.16;79.59;99161.39;1769085;80;21165;-54
2022/01/05 12:11:49;;;;;;;16.15;9.08;;;;;;;9.15;79.44;99163.27;1770120;79;21212;-54
2022/01/05 12:14:55;;;;;;;14.68;9.13;;;;;;;9.15;79.43;99166.00;1769636;80;21195;-54
2022/01/05 12:18:12;;;;;;;18.35;9.93;;;;;;;9.20;79.31;99181.27;1759283;80;21213;-53
2022/01/05 12:21:20;;;;;;;19.50;10.08;;;;;;;9.22;79.17;99182.44;1754064;81;21805;-55
2022/01/05 12:24:25;;;;;;;19.52;10.78;;;;;;;9.20;78.98;99194.10;1758060;80;21193;-55
2022/01/05 12:27:38;;;;;;;16.90;9.45;;;;;;;9.17;78.89;99195.83;1770060;79;21265;-55
2022/01/05 12:30:44;;;;;;;18.87;10.48;;;;;;;9.12;78.87;99211.44;1738597;81;21267;-55
2022/01/05 12:33:58;;;;;;;16.70;9.60;;;;;;;9.06;78.83;99211.71;1745417;81;21685;-54
2022/01/05 12:37:03;;;;;;;20.60;11.65;;;;;;;9.04;78.80;99213.78;1760785;81;21189;-54
2022/01/05 12:40:10;;;;;;;22.30;11.43;;;;;;;9.00;78.70;99205.67;1759855;79;21189;-54
2022/01/05 12:43:22;;;;;;;22.42;11.80;;;;;;;8.99;78.73;99211.33;1768786;80;21765;-53
2022/01/05 12:46:49;;;;;;;20.72;10.78;;;;;;;8.97;78.65;99224.31;1766981;79;21200;-53
2022/01/05 12:49:56;;;;;;;25.15;12.65;;;;;;;8.92;78.48;99222.69;1764900;81;21189;-54
2022/01/05 12:53:01;;;;;;;28.47;13.45;;;;;;;8.83;78.63;99222.48;1758292;81;21601;-55
2022/01/05 12:56:05;;;;;;;23.05;11.73;;;;;;;8.78;78.84;99235.86;1768772;79;21255;-55
2022/01/05 12:59:16;;;;;;;20.65;10.50;;;;;;;8.75;79.04;99230.25;1769775;81;21538;-54
2022/01/05 13:02:29;;;;;;;17.92;10.70;;;;;;;8.71;79.09;99233.55;1770655;79;21252;-54
2022/01/05 13:05:35;;;;;;;17.75;11.12;;;;;;;8.66;79.23;99233.28;1765680;79;21722;-53
2022/01/05 13:08:42;;;;;;;18.92;10.68;;;;;;;8.65;79.29;99241.15;1763962;81;21754;-53
2022/01/05 13:11:57;;;;;;;17.12;10.25;;;;;;;8.62;79.32;99222.44;1768589;79;21759;-54
2022/01/05 13:15:10;;;;;;;30.50;16.15;;;;;;;8.58;79.29;99232.88;1758032;80;21169;-55
2022/01/05 13:18:17;;;;;;;50.28;26.27;;;;;;;8.54;79.41;99251.19;1778713;80;21177;-54
2022/01/05 13:21:22;;;;;;;35.30;19.48;;;;;;;8.52;79.60;99254.62;1781149;80;21288;-54
2022/01/05 13:24:29;;;;;;;35.65;20.20;;;;;;;8.50;79.65;99258.08;1766439;81;21177;-54
2022/01/05 13:27:38;;;;;;;25.75;14.10;;;;;;;8.47;79.68;99258.42;1764978;78;21216;-54
2022/01/05 13:30:46;;;;;;;22.98;12.65;;;;;;;8.41;79.70;99239.59;1769002;79;21213;-55
2022/01/05 13:33:52;;;;;;;22.87;10.90;;;;;;;8.38;79.69;99233.16;1767019;80;21619;-55
2022/01/05 13:37:00;;;;;;;19.17;11.78;;;;;;;8.37;79.80;99245.63;1768077;79;21204;-54
2022/01/05 13:40:10;;;;;;;21.60;12.55;;;;;;;8.34;79.80;99256.38;1756635;81;21240;-55
2022/01/05 13:43:17;;;;;;;25.90;12.55;;;;;;;8.30;79.84;99263.25;1745700;81;21582;-54
2022/01/05 13:46:25;;;;;;;21.00;12.28;;;;;;;8.28;79.89;99268.55;1745578;80;21256;-54
2022/01/05 13:49:30;;;;;;;20.12;12.28;;;;;;;8.22;79.85;99263.31;1728565;82;21204;-54
2022/01/05 13:52:39;;;;;;;18.60;12.15;;;;;;;8.15;79.92;99264.26;1728772;83;21578;-54
2022/01/05 13:55:58;;;;;;;24.63;12.80;;;;;;;8.11;80.09;99262.42;1747304;79;21213;-54
2022/01/05 13:59:03;;;;;;;20.02;11.22;;;;;;;8.09;80.20;99255.44;1758161;81;21205;-53
2022/01/05 14:02:08;;;;;;;17.30;11.00;;;;;;;8.05;80.16;99260.95;1770865;79;21367;-53
2022/01/05 14:05:15;;;;;;;22.82;10.93;;;;;;;7.98;80.28;99268.17;1768146;80;21205;-53
2022/01/05 14:08:22;;;;;;;20.05;12.13;;;;;;;7.93;80.44;99256.47;1765751;80;21189;-53
2022/01/05 14:11:28;;;;;;;18.15;11.63;;;;;;;7.91;80.65;99274.91;1763749;80;21205;-53
2022/01/05 14:14:33;;;;;;;20.05;12.58;;;;;;;7.88;80.78;99271.70;1736761;82;21189;-54
2022/01/05 14:17:39;;;;;;;17.77;11.35;;;;;;;7.83;80.83;99274.99;1707492;83;21737;-54
2022/01/05 14:20:55;;;;;;;21.02;11.43;;;;;;;7.80;80.96;99272.61;1681504;82;21729;-53
2022/01/05 14:24:00;;;;;;;19.62;10.93;;;;;;;7.77;81.08;99263.98;1711425;83;21193;-53
2022/01/05 14:27:08;;;;;;;20.17;12.88;;;;;;;7.73;81.31;99270.31;1737967;81;21522;-53
2022/01/05 14:30:16;;;;;;;22.45;13.25;;;;;;;7.71;81.58;99284.63;1759600;80;21807;-53
2022/01/05 14:33:42;;;;;;;22.95;12.90;;;;;;;7.68;81.69;99290.95;1758342;81;21538;-53
2022/01/05 14:36:50;;;;;;;24.25;13.93;;;;;;;7.66;81.87;99280.23;1734912;81;21849;-53
2022/01/05 14:39:56;;;;;;;26.62;13.60;;;;;;;7.66;82.07;99287.59;1738047;82;21185;-55
2022/01/05 14:43:09;;;;;;;22.05;13.62;;;;;;;7.64;82.23;99287.77;1766423;81;21487;-53
2022/01/05 14:46:16;;;;;;;27.32;14.18;;;;;;;7.66;82.40;99294.39;1760704;81;21217;-53